sensor_id;sensor_type;location;lat;lon;timestamp;pressure;altitude;pressure_sealevel;temperature;humidity
70009;BME280;59542;37.950;-122.338;2023-01-26T00:01:11;102401.00;;;18.65;34.81
70009;BME280;59542;37.950;-122.338;2023-01-26T00:03:38;102413.53;;;18.73;35.58
70009;BME280;59542;37.950;-122.338;2023-01-26T00:06:06;102403.25;;;18.75;35.54
70009;BME280;59542;37.950;-122.338;2023-01-26T00:08:40;102393.31;;;18.69;35.07
70009;BME280;59542;37.950;-122.338;2023-01-26T00:11:08;102401.28;;;18.89;34.72
70009;BME280;59542;37.950;-122.338;2023-01-26T00:13:35;102400.47;;;18.57;35.96
70009;BME280;59542;37.950;-122.338;2023-01-26T00:16:02;102389.13;;;18.41;36.31
70009;BME280;59542;37.950;-122.338;2023-01-26T00:18:29;102392.75;;;18.60;35.67
70009;BME280;59542;37.950;-122.338;2023-01-26T00:20:57;102401.19;;;18.77;35.48
70009;BME280;59542;37.950;-122.338;2023-01-26T00:23:24;102396.28;;;18.61;34.64
70009;BME280;59542;37.950;-122.338;2023-01-26T00:25:50;102393.19;;;18.32;35.57
70009;BME280;59542;37.950;-122.338;2023-01-26T00:28:16;102395.28;;;18.55;35.01
70009;BME280;59542;37.950;-122.338;2023-01-26T00:30:43;102393.78;;;18.59;35.13
70009;BME280;59542;37.950;-122.338;2023-01-26T00:33:09;102395.78;;;18.45;35.20
70009;BME280;59542;37.950;-122.338;2023-01-26T00:35:35;102396.72;;;18.33;35.69
70009;BME280;59542;37.950;-122.338;2023-01-26T00:38:02;102397.31;;;18.35;35.58
70009;BME280;59542;37.950;-122.338;2023-01-26T00:40:29;102400.13;;;18.22;35.51
70009;BME280;59542;37.950;-122.338;2023-01-26T00:42:55;102400.25;;;18.33;35.41
70009;BME280;59542;37.950;-122.338;2023-01-26T00:45:22;102400.31;;;18.27;34.79
70009;BME280;59542;37.950;-122.338;2023-01-26T00:47:48;102403.13;;;18.07;35.54
70009;BME280;59542;37.950;-122.338;2023-01-26T00:50:15;102395.94;;;17.94;35.98
70009;BME280;59542;37.950;-122.338;2023-01-26T00:52:41;102398.44;;;18.20;35.50
70009;BME280;59542;37.950;-122.338;2023-01-26T00:55:07;102399.69;;;18.25;35.48
70009;BME280;59542;37.950;-122.338;2023-01-26T00:57:34;102398.19;;;18.29;35.29
70009;BME280;59542;37.950;-122.338;2023-01-26T01:00:00;102399.38;;;18.08;35.80
70009;BME280;59542;37.950;-122.338;2023-01-26T01:02:26;102395.59;;;18.09;35.80
70009;BME280;59542;37.950;-122.338;2023-01-26T01:04:52;102396.25;;;18.04;35.87
70009;BME280;59542;37.950;-122.338;2023-01-26T01:07:19;102399.31;;;17.83;36.58
70009;BME280;59542;37.950;-122.338;2023-01-26T01:09:45;102395.97;;;17.81;36.47
70009;BME280;59542;37.950;-122.338;2023-01-26T01:12:11;102397.94;;;17.60;37.18
70009;BME280;59542;37.950;-122.338;2023-01-26T01:14:38;102398.13;;;17.59;38.27
70009;BME280;59542;37.950;-122.338;2023-01-26T01:17:04;102401.72;;;17.46;38.58
70009;BME280;59542;37.950;-122.338;2023-01-26T01:19:30;102401.50;;;17.48;39.19
70009;BME280;59542;37.950;-122.338;2023-01-26T01:21:56;102415.91;;;17.41;39.86
70009;BME280;59542;37.950;-122.338;2023-01-26T01:24:23;102409.47;;;17.29;39.73
70009;BME280;59542;37.950;-122.338;2023-01-26T01:26:49;102414.91;;;17.23;39.88
70009;BME280;59542;37.950;-122.338;2023-01-26T01:29:15;102411.38;;;17.15;39.81
70009;BME280;59542;37.950;-122.338;2023-01-26T01:31:42;102419.75;;;17.01;39.90
70009;BME280;59542;37.950;-122.338;2023-01-26T01:34:08;102419.56;;;16.82;39.50
70009;BME280;59542;37.950;-122.338;2023-01-26T01:36:34;102419.13;;;16.92;40.27
70009;BME280;59542;37.950;-122.338;2023-01-26T01:39:01;102414.13;;;16.96;40.57
70009;BME280;59542;37.950;-122.338;2023-01-26T01:41:27;102427.66;;;16.76;40.48
70009;BME280;59542;37.950;-122.338;2023-01-26T01:44:17;102419.09;;;16.59;40.88
70009;BME280;59542;37.950;-122.338;2023-01-26T01:46:59;102414.31;;;16.54;41.04
70009;BME280;59542;37.950;-122.338;2023-01-26T01:49:29;102416.81;;;16.49;41.24
70009;BME280;59542;37.950;-122.338;2023-01-26T01:54:33;102418.44;;;16.24;42.46
70009;BME280;59542;37.950;-122.338;2023-01-26T01:57:06;102421.16;;;15.63;43.71
70009;BME280;59542;37.950;-122.338;2023-01-26T01:59:43;102426.59;;;15.69;43.78
70009;BME280;59542;37.950;-122.338;2023-01-26T02:02:10;102420.69;;;15.59;43.71
70009;BME280;59542;37.950;-122.338;2023-01-26T02:04:37;102424.22;;;15.59;43.72
70009;BME280;59542;37.950;-122.338;2023-01-26T02:07:04;102424.19;;;15.53;44.02
70009;BME280;59542;37.950;-122.338;2023-01-26T02:09:35;102430.59;;;15.45;44.37
70009;BME280;59542;37.950;-122.338;2023-01-26T02:12:24;102436.03;;;15.52;44.75
70009;BME280;59542;37.950;-122.338;2023-01-26T02:14:52;102431.53;;;15.31;45.04
70009;BME280;59542;37.950;-122.338;2023-01-26T02:17:18;102432.91;;;15.14;45.73
70009;BME280;59542;37.950;-122.338;2023-01-26T02:19:55;102434.56;;;15.15;45.66
70009;BME280;59542;37.950;-122.338;2023-01-26T02:22:40;102434.22;;;14.96;45.79
70009;BME280;59542;37.950;-122.338;2023-01-26T02:27:50;102436.06;;;14.89;45.71
70009;BME280;59542;37.950;-122.338;2023-01-26T02:30:16;102446.84;;;14.89;46.22
70009;BME280;59542;37.950;-122.338;2023-01-26T02:32:43;102448.56;;;14.75;46.46
70009;BME280;59542;37.950;-122.338;2023-01-26T02:35:09;102443.13;;;14.47;46.79
70009;BME280;59542;37.950;-122.338;2023-01-26T02:37:38;102443.59;;;14.51;46.65
70009;BME280;59542;37.950;-122.338;2023-01-26T02:40:15;102447.69;;;14.47;46.79
70009;BME280;59542;37.950;-122.338;2023-01-26T02:42:43;102447.59;;;14.40;46.90
70009;BME280;59542;37.950;-122.338;2023-01-26T02:45:12;102453.63;;;14.42;47.30
70009;BME280;59542;37.950;-122.338;2023-01-26T02:47:39;102453.03;;;14.25;47.27
70009;BME280;59542;37.950;-122.338;2023-01-26T02:50:07;102452.59;;;14.22;48.03
70009;BME280;59542;37.950;-122.338;2023-01-26T02:52:34;102450.28;;;14.19;47.86
70009;BME280;59542;37.950;-122.338;2023-01-26T02:55:00;102445.91;;;14.18;48.15
70009;BME280;59542;37.950;-122.338;2023-01-26T02:57:45;102449.59;;;13.95;48.61
70009;BME280;59542;37.950;-122.338;2023-01-26T03:00:15;102451.47;;;13.80;48.74
70009;BME280;59542;37.950;-122.338;2023-01-26T03:02:43;102460.22;;;13.67;49.31
70009;BME280;59542;37.950;-122.338;2023-01-26T03:05:09;102464.59;;;13.68;49.92
70009;BME280;59542;37.950;-122.338;2023-01-26T03:07:36;102462.38;;;13.57;50.13
70009;BME280;59542;37.950;-122.338;2023-01-26T03:10:03;102466.34;;;13.46;50.61
70009;BME280;59542;37.950;-122.338;2023-01-26T03:12:29;102471.63;;;13.55;50.62
70009;BME280;59542;37.950;-122.338;2023-01-26T03:14:55;102463.41;;;13.04;50.25
70009;BME280;59542;37.950;-122.338;2023-01-26T03:17:40;102472.56;;;12.94;51.09
70009;BME280;59542;37.950;-122.338;2023-01-26T03:20:08;102465.03;;;12.90;51.12
70009;BME280;59542;37.950;-122.338;2023-01-26T03:22:53;102463.78;;;13.01;51.26
70009;BME280;59542;37.950;-122.338;2023-01-26T03:25:37;102468.97;;;13.02;50.82
70009;BME280;59542;37.950;-122.338;2023-01-26T03:28:22;102460.41;;;12.99;51.11
70009;BME280;59542;37.950;-122.338;2023-01-26T03:30:49;102459.72;;;13.05;51.24
70009;BME280;59542;37.950;-122.338;2023-01-26T03:33:16;102470.31;;;12.83;51.44
70009;BME280;59542;37.950;-122.338;2023-01-26T03:35:43;102471.97;;;12.84;51.62
70009;BME280;59542;37.950;-122.338;2023-01-26T03:38:10;102471.75;;;12.71;51.55
70009;BME280;59542;37.950;-122.338;2023-01-26T03:40:37;102475.81;;;12.67;51.61
70009;BME280;59542;37.950;-122.338;2023-01-26T03:43:21;102473.59;;;12.71;51.26
70009;BME280;59542;37.950;-122.338;2023-01-26T03:46:06;102476.88;;;12.81;50.85
70009;BME280;59542;37.950;-122.338;2023-01-26T03:48:51;102475.75;;;12.52;51.31
70009;BME280;59542;37.950;-122.338;2023-01-26T03:51:36;102483.31;;;12.49;51.08
70009;BME280;59542;37.950;-122.338;2023-01-26T03:54:23;102480.34;;;12.43;51.34
70009;BME280;59542;37.950;-122.338;2023-01-26T03:57:08;102487.19;;;12.23;51.38
70009;BME280;59542;37.950;-122.338;2023-01-26T03:59:34;102487.44;;;12.36;50.97
70009;BME280;59542;37.950;-122.338;2023-01-26T04:02:10;102490.44;;;12.64;50.14
70009;BME280;59542;37.950;-122.338;2023-01-26T04:04:57;102484.19;;;12.72;50.08
70009;BME280;59542;37.950;-122.338;2023-01-26T04:07:41;102491.78;;;12.37;51.27
70009;BME280;59542;37.950;-122.338;2023-01-26T04:10:26;102496.09;;;12.24;52.09
70009;BME280;59542;37.950;-122.338;2023-01-26T04:12:52;102498.78;;;12.15;52.24
70009;BME280;59542;37.950;-122.338;2023-01-26T04:15:37;102494.22;;;11.93;53.34
70009;BME280;59542;37.950;-122.338;2023-01-26T04:18:22;102502.53;;;11.59;54.45
70009;BME280;59542;37.950;-122.338;2023-01-26T04:21:06;102490.06;;;11.74;54.34
70009;BME280;59542;37.950;-122.338;2023-01-26T04:23:55;102491.19;;;11.96;53.55
70009;BME280;59542;37.950;-122.338;2023-01-26T04:26:23;102494.50;;;12.06;52.91
70009;BME280;59542;37.950;-122.338;2023-01-26T04:28:50;102488.28;;;12.06;52.81
70009;BME280;59542;37.950;-122.338;2023-01-26T04:31:16;102492.84;;;11.97;52.88
70009;BME280;59542;37.950;-122.338;2023-01-26T04:33:43;102485.72;;;11.65;53.58
70009;BME280;59542;37.950;-122.338;2023-01-26T04:36:09;102493.31;;;11.61;53.79
70009;BME280;59542;37.950;-122.338;2023-01-26T04:38:36;102488.66;;;11.47;54.08
70009;BME280;59542;37.950;-122.338;2023-01-26T04:41:02;102493.03;;;11.96;52.81
70009;BME280;59542;37.950;-122.338;2023-01-26T04:43:28;102492.53;;;11.92;52.75
70009;BME280;59542;37.950;-122.338;2023-01-26T04:45:59;102491.75;;;11.75;53.29
70009;BME280;59542;37.950;-122.338;2023-01-26T04:48:27;102498.69;;;11.53;54.02
70009;BME280;59542;37.950;-122.338;2023-01-26T04:50:58;102493.84;;;11.41;54.65
70009;BME280;59542;37.950;-122.338;2023-01-26T04:53:25;102497.41;;;11.33;54.66
70009;BME280;59542;37.950;-122.338;2023-01-26T04:55:52;102500.56;;;11.45;54.47
70009;BME280;59542;37.950;-122.338;2023-01-26T04:58:19;102496.19;;;11.52;54.34
70009;BME280;59542;37.950;-122.338;2023-01-26T05:00:50;102502.25;;;11.29;54.84
70009;BME280;59542;37.950;-122.338;2023-01-26T05:03:16;102497.91;;;11.28;54.82
70009;BME280;59542;37.950;-122.338;2023-01-26T05:05:42;102506.66;;;10.90;55.01
70009;BME280;59542;37.950;-122.338;2023-01-26T05:08:08;102503.63;;;11.01;55.09
70009;BME280;59542;37.950;-122.338;2023-01-26T05:10:35;102500.78;;;11.10;54.76
70009;BME280;59542;37.950;-122.338;2023-01-26T05:13:01;102503.13;;;11.05;54.57
70009;BME280;59542;37.950;-122.338;2023-01-26T05:15:27;102497.75;;;11.14;54.04
70009;BME280;59542;37.950;-122.338;2023-01-26T05:17:56;102505.94;;;11.20;53.62
70009;BME280;59542;37.950;-122.338;2023-01-26T05:20:22;102510.16;;;10.82;54.64
70009;BME280;59542;37.950;-122.338;2023-01-26T05:22:48;102505.13;;;11.20;53.34
70009;BME280;59542;37.950;-122.338;2023-01-26T05:25:14;102503.13;;;11.14;53.39
70009;BME280;59542;37.950;-122.338;2023-01-26T05:27:41;102499.25;;;11.08;53.33
70009;BME280;59542;37.950;-122.338;2023-01-26T05:30:08;102502.28;;;10.97;53.34
70009;BME280;59542;37.950;-122.338;2023-01-26T05:32:34;102508.13;;;10.92;53.24
70009;BME280;59542;37.950;-122.338;2023-01-26T05:35:00;102517.38;;;10.90;53.69
70009;BME280;59542;37.950;-122.338;2023-01-26T05:37:27;102512.34;;;10.95;53.90
70009;BME280;59542;37.950;-122.338;2023-01-26T05:39:54;102515.53;;;11.06;53.73
70009;BME280;59542;37.950;-122.338;2023-01-26T05:42:21;102507.47;;;11.06;53.57
70009;BME280;59542;37.950;-122.338;2023-01-26T05:44:48;102514.19;;;10.94;52.88
70009;BME280;59542;37.950;-122.338;2023-01-26T05:47:14;102519.38;;;11.12;52.36
70009;BME280;59542;37.950;-122.338;2023-01-26T05:49:41;102517.00;;;10.93;52.93
70009;BME280;59542;37.950;-122.338;2023-01-26T05:52:09;102517.50;;;10.88;52.78
70009;BME280;59542;37.950;-122.338;2023-01-26T05:54:35;102519.19;;;10.97;52.21
70009;BME280;59542;37.950;-122.338;2023-01-26T05:57:02;102515.50;;;10.98;52.86
70009;BME280;59542;37.950;-122.338;2023-01-26T05:59:28;102520.03;;;10.90;52.86
70009;BME280;59542;37.950;-122.338;2023-01-26T06:01:56;102527.72;;;10.93;52.51
70009;BME280;59542;37.950;-122.338;2023-01-26T06:04:22;102518.19;;;10.90;52.74
70009;BME280;59542;37.950;-122.338;2023-01-26T06:06:50;102527.91;;;10.91;52.99
70009;BME280;59542;37.950;-122.338;2023-01-26T06:09:17;102521.38;;;11.02;51.44
70009;BME280;59542;37.950;-122.338;2023-01-26T06:11:43;102527.25;;;10.89;51.95
70009;BME280;59542;37.950;-122.338;2023-01-26T06:14:09;102530.09;;;10.96;51.50
70009;BME280;59542;37.950;-122.338;2023-01-26T06:16:35;102532.94;;;11.19;51.27
70009;BME280;59542;37.950;-122.338;2023-01-26T06:19:02;102533.09;;;11.33;50.60
70009;BME280;59542;37.950;-122.338;2023-01-26T06:21:29;102535.28;;;11.14;50.44
70009;BME280;59542;37.950;-122.338;2023-01-26T06:23:56;102537.44;;;11.10;51.09
70009;BME280;59542;37.950;-122.338;2023-01-26T06:26:22;102536.63;;;11.18;51.02
70009;BME280;59542;37.950;-122.338;2023-01-26T06:28:52;102537.78;;;11.07;51.44
70009;BME280;59542;37.950;-122.338;2023-01-26T06:31:19;102535.25;;;11.30;50.57
70009;BME280;59542;37.950;-122.338;2023-01-26T06:33:45;102532.75;;;11.20;50.48
70009;BME280;59542;37.950;-122.338;2023-01-26T06:36:13;102527.06;;;11.07;50.66
70009;BME280;59542;37.950;-122.338;2023-01-26T06:38:50;102537.28;;;11.12;50.87
70009;BME280;59542;37.950;-122.338;2023-01-26T06:41:17;102529.94;;;11.05;50.96
70009;BME280;59542;37.950;-122.338;2023-01-26T06:43:46;102533.94;;;10.85;51.59
70009;BME280;59542;37.950;-122.338;2023-01-26T06:46:13;102526.06;;;10.92;51.68
70009;BME280;59542;37.950;-122.338;2023-01-26T06:48:39;102525.53;;;10.64;52.51
70009;BME280;59542;37.950;-122.338;2023-01-26T06:53:43;102535.09;;;10.82;52.76
70009;BME280;59542;37.950;-122.338;2023-01-26T06:56:13;102545.16;;;10.97;52.33
70009;BME280;59542;37.950;-122.338;2023-01-26T06:58:39;102546.25;;;10.53;53.43
70009;BME280;59542;37.950;-122.338;2023-01-26T07:01:06;102539.84;;;10.38;53.60
70009;BME280;59542;37.950;-122.338;2023-01-26T07:03:32;102553.22;;;10.30;54.06
70009;BME280;59542;37.950;-122.338;2023-01-26T07:05:58;102553.72;;;10.25;54.26
70009;BME280;59542;37.950;-122.338;2023-01-26T07:08:24;102552.19;;;10.23;54.98
70009;BME280;59542;37.950;-122.338;2023-01-26T07:10:51;102557.19;;;10.18;55.23
70009;BME280;59542;37.950;-122.338;2023-01-26T07:13:17;102548.19;;;10.27;55.25
70009;BME280;59542;37.950;-122.338;2023-01-26T07:15:43;102551.25;;;10.40;54.35
70009;BME280;59542;37.950;-122.338;2023-01-26T07:18:09;102548.75;;;10.47;54.48
70009;BME280;59542;37.950;-122.338;2023-01-26T07:20:36;102564.00;;;10.12;55.26
70009;BME280;59542;37.950;-122.338;2023-01-26T07:23:02;102556.69;;;10.22;55.11
70009;BME280;59542;37.950;-122.338;2023-01-26T07:25:28;102565.03;;;10.19;55.48
70009;BME280;59542;37.950;-122.338;2023-01-26T07:27:56;102569.94;;;9.98;55.79
70009;BME280;59542;37.950;-122.338;2023-01-26T07:30:22;102562.28;;;10.03;55.88
70009;BME280;59542;37.950;-122.338;2023-01-26T07:32:49;102562.81;;;9.72;56.91
70009;BME280;59542;37.950;-122.338;2023-01-26T07:35:16;102570.50;;;9.75;56.87
70009;BME280;59542;37.950;-122.338;2023-01-26T07:37:42;102565.00;;;9.51;57.67
70009;BME280;59542;37.950;-122.338;2023-01-26T07:40:09;102566.31;;;9.47;57.93
70009;BME280;59542;37.950;-122.338;2023-01-26T07:42:35;102563.34;;;9.32;58.43
70009;BME280;59542;37.950;-122.338;2023-01-26T07:45:02;102574.66;;;9.26;58.81
70009;BME280;59542;37.950;-122.338;2023-01-26T07:47:28;102578.28;;;8.99;59.75
70009;BME280;59542;37.950;-122.338;2023-01-26T07:49:54;102577.81;;;8.86;60.07
70009;BME280;59542;37.950;-122.338;2023-01-26T07:52:20;102575.59;;;8.81;60.44
70009;BME280;59542;37.950;-122.338;2023-01-26T07:54:47;102574.09;;;8.61;60.93
70009;BME280;59542;37.950;-122.338;2023-01-26T07:57:13;102575.53;;;8.55;61.82
70009;BME280;59542;37.950;-122.338;2023-01-26T07:59:39;102575.09;;;8.78;61.25
70009;BME280;59542;37.950;-122.338;2023-01-26T08:02:07;102579.88;;;8.74;61.51
70009;BME280;59542;37.950;-122.338;2023-01-26T08:04:34;102577.38;;;8.72;61.34
70009;BME280;59542;37.950;-122.338;2023-01-26T08:07:00;102573.47;;;8.85;61.04
70009;BME280;59542;37.950;-122.338;2023-01-26T08:09:26;102584.44;;;8.64;61.61
70009;BME280;59542;37.950;-122.338;2023-01-26T08:11:55;102581.38;;;8.59;61.62
70009;BME280;59542;37.950;-122.338;2023-01-26T08:14:22;102571.53;;;8.41;61.86
70009;BME280;59542;37.950;-122.338;2023-01-26T08:16:49;102577.63;;;8.24;62.21
70009;BME280;59542;37.950;-122.338;2023-01-26T08:19:15;102574.78;;;8.26;62.15
70009;BME280;59542;37.950;-122.338;2023-01-26T08:21:41;102570.41;;;8.44;61.80
70009;BME280;59542;37.950;-122.338;2023-01-26T08:24:10;102578.19;;;8.55;61.11
70009;BME280;59542;37.950;-122.338;2023-01-26T08:26:37;102588.53;;;8.40;61.17
70009;BME280;59542;37.950;-122.338;2023-01-26T08:29:03;102568.00;;;8.41;61.13
70009;BME280;59542;37.950;-122.338;2023-01-26T08:31:30;102572.25;;;8.61;60.39
70009;BME280;59542;37.950;-122.338;2023-01-26T08:33:58;102573.53;;;8.57;60.06
70009;BME280;59542;37.950;-122.338;2023-01-26T08:36:24;102570.19;;;8.55;59.57
70009;BME280;59542;37.950;-122.338;2023-01-26T08:38:51;102563.41;;;8.61;59.10
70009;BME280;59542;37.950;-122.338;2023-01-26T08:41:18;102568.78;;;8.51;58.92
70009;BME280;59542;37.950;-122.338;2023-01-26T08:43:45;102564.09;;;8.63;58.42
70009;BME280;59542;37.950;-122.338;2023-01-26T08:46:11;102560.56;;;8.44;59.04
70009;BME280;59542;37.950;-122.338;2023-01-26T08:48:38;102565.19;;;8.42;59.38
70009;BME280;59542;37.950;-122.338;2023-01-26T08:51:05;102571.06;;;8.46;59.30
70009;BME280;59542;37.950;-122.338;2023-01-26T08:53:34;102568.78;;;8.51;58.94
70009;BME280;59542;37.950;-122.338;2023-01-26T08:56:06;102569.78;;;8.50;58.91
70009;BME280;59542;37.950;-122.338;2023-01-26T08:58:33;102574.19;;;8.41;58.82
70009;BME280;59542;37.950;-122.338;2023-01-26T09:01:06;102579.94;;;8.64;58.33
70009;BME280;59542;37.950;-122.338;2023-01-26T09:03:32;102578.94;;;8.65;56.91
70009;BME280;59542;37.950;-122.338;2023-01-26T09:05:59;102581.31;;;8.68;56.10
70009;BME280;59542;37.950;-122.338;2023-01-26T09:08:26;102573.38;;;8.77;55.72
70009;BME280;59542;37.950;-122.338;2023-01-26T09:10:53;102571.88;;;8.92;55.48
70009;BME280;59542;37.950;-122.338;2023-01-26T09:13:19;102557.00;;;8.89;54.93
70009;BME280;59542;37.950;-122.338;2023-01-26T09:15:45;102554.22;;;8.99;54.24
70009;BME280;59542;37.950;-122.338;2023-01-26T09:18:11;102550.44;;;9.02;53.57
70009;BME280;59542;37.950;-122.338;2023-01-26T09:20:38;102552.69;;;9.14;52.92
70009;BME280;59542;37.950;-122.338;2023-01-26T09:23:05;102551.56;;;9.17;51.56
70009;BME280;59542;37.950;-122.338;2023-01-26T09:25:34;102552.00;;;9.30;50.41
70009;BME280;59542;37.950;-122.338;2023-01-26T09:28:01;102551.66;;;9.51;50.03
70009;BME280;59542;37.950;-122.338;2023-01-26T09:30:27;102551.22;;;9.64;49.05
70009;BME280;59542;37.950;-122.338;2023-01-26T09:32:58;102546.25;;;9.77;48.75
70009;BME280;59542;37.950;-122.338;2023-01-26T09:35:25;102555.16;;;10.12;48.04
70009;BME280;59542;37.950;-122.338;2023-01-26T09:37:52;102547.47;;;10.17;47.67
70009;BME280;59542;37.950;-122.338;2023-01-26T09:40:22;102547.47;;;10.17;47.29
70009;BME280;59542;37.950;-122.338;2023-01-26T09:45:48;102544.06;;;10.41;47.78
70009;BME280;59542;37.950;-122.338;2023-01-26T09:49:04;102547.78;;;10.56;46.58
70009;BME280;59542;37.950;-122.338;2023-01-26T09:52:08;102554.28;;;10.45;46.56
70009;BME280;59542;37.950;-122.338;2023-01-26T09:54:47;102561.00;;;10.57;46.09
70009;BME280;59542;37.950;-122.338;2023-01-26T09:57:26;102551.66;;;10.62;46.34
70009;BME280;59542;37.950;-122.338;2023-01-26T10:00:24;102558.94;;;10.43;46.75
70009;BME280;59542;37.950;-122.338;2023-01-26T10:06:10;102560.13;;;10.41;47.06
70009;BME280;59542;37.950;-122.338;2023-01-26T10:08:31;102575.81;;;10.27;47.26
70009;BME280;59542;37.950;-122.338;2023-01-26T10:11:01;102580.78;;;10.22;47.70
70009;BME280;59542;37.950;-122.338;2023-01-26T10:13:29;102589.03;;;10.03;48.30
70009;BME280;59542;37.950;-122.338;2023-01-26T10:16:02;102585.06;;;10.15;48.11
70009;BME280;59542;37.950;-122.338;2023-01-26T10:18:39;102587.38;;;10.02;47.87
70009;BME280;59542;37.950;-122.338;2023-01-26T10:21:09;102586.63;;;9.92;47.19
70009;BME280;59542;37.950;-122.338;2023-01-26T10:23:44;102584.69;;;10.02;45.66
70009;BME280;59542;37.950;-122.338;2023-01-26T10:26:21;102585.94;;;10.58;42.58
70009;BME280;59542;37.950;-122.338;2023-01-26T10:28:52;102580.84;;;11.05;41.70
70009;BME280;59542;37.950;-122.338;2023-01-26T10:31:21;102581.00;;;11.28;41.37
70009;BME280;59542;37.950;-122.338;2023-01-26T10:34:09;102572.06;;;11.85;39.82
70009;BME280;59542;37.950;-122.338;2023-01-26T10:36:39;102581.59;;;11.96;40.14
70009;BME280;59542;37.950;-122.338;2023-01-26T10:39:09;102586.72;;;12.13;39.68
70009;BME280;59542;37.950;-122.338;2023-01-26T10:41:37;102588.06;;;12.49;38.73
70009;BME280;59542;37.950;-122.338;2023-01-26T10:44:31;102582.69;;;12.49;38.81
70009;BME280;59542;37.950;-122.338;2023-01-26T10:49:32;102580.81;;;12.57;38.83
70009;BME280;59542;37.950;-122.338;2023-01-26T10:54:45;102579.47;;;12.61;39.06
70009;BME280;59542;37.950;-122.338;2023-01-26T10:57:25;102573.06;;;12.62;39.14
70009;BME280;59542;37.950;-122.338;2023-01-26T10:59:54;102568.44;;;12.48;39.73
70009;BME280;59542;37.950;-122.338;2023-01-26T11:02:29;102585.66;;;12.31;40.10
70009;BME280;59542;37.950;-122.338;2023-01-26T11:05:13;102575.75;;;12.31;40.23
70009;BME280;59542;37.950;-122.338;2023-01-26T11:07:43;102570.69;;;12.36;40.36
70009;BME280;59542;37.950;-122.338;2023-01-26T11:10:33;102567.97;;;12.45;39.99
70009;BME280;59542;37.950;-122.338;2023-01-26T11:13:16;102574.19;;;12.37;39.75
70009;BME280;59542;37.950;-122.338;2023-01-26T11:15:50;102584.63;;;12.32;39.93
70009;BME280;59542;37.950;-122.338;2023-01-26T11:23:59;102571.44;;;12.53;39.48
70009;BME280;59542;37.950;-122.338;2023-01-26T11:29:56;102567.88;;;12.61;39.04
70009;BME280;59542;37.950;-122.338;2023-01-26T11:41:10;102564.59;;;12.97;38.11
70009;BME280;59542;37.950;-122.338;2023-01-26T12:00:42;102565.38;;;13.05;37.81
70009;BME280;59542;37.950;-122.338;2023-01-26T12:03:42;102566.22;;;13.06;37.83
70009;BME280;59542;37.950;-122.338;2023-01-26T12:06:39;102564.78;;;12.95;37.52
70009;BME280;59542;37.950;-122.338;2023-01-26T12:23:26;102582.50;;;13.04;37.62
70009;BME280;59542;37.950;-122.338;2023-01-26T12:25:39;102575.88;;;12.92;37.90
70009;BME280;59542;37.950;-122.338;2023-01-26T12:33:31;102602.53;;;13.02;38.03
70009;BME280;59542;37.950;-122.338;2023-01-26T12:39:21;102612.06;;;13.04;38.06
70009;BME280;59542;37.950;-122.338;2023-01-26T12:44:57;102602.53;;;13.02;37.65
70009;BME280;59542;37.950;-122.338;2023-01-26T12:47:55;102608.34;;;12.82;37.64
70009;BME280;59542;37.950;-122.338;2023-01-26T12:50:37;102607.91;;;12.79;38.20
70009;BME280;59542;37.950;-122.338;2023-01-26T12:53:40;102617.22;;;12.91;38.10
70009;BME280;59542;37.950;-122.338;2023-01-26T12:56:30;102613.19;;;12.87;38.45
70009;BME280;59542;37.950;-122.338;2023-01-26T12:59:02;102613.56;;;12.84;38.42
70009;BME280;59542;37.950;-122.338;2023-01-26T13:01:40;102613.09;;;12.80;38.22
70009;BME280;59542;37.950;-122.338;2023-01-26T13:04:10;102625.38;;;12.75;38.74
70009;BME280;59542;37.950;-122.338;2023-01-26T13:06:37;102626.31;;;12.90;38.65
70009;BME280;59542;37.950;-122.338;2023-01-26T13:09:23;102621.78;;;12.82;38.77
70009;BME280;59542;37.950;-122.338;2023-01-26T13:11:57;102627.09;;;12.67;39.43
70009;BME280;59542;37.950;-122.338;2023-01-26T13:32:50;102651.09;;;12.30;40.46
70009;BME280;59542;37.950;-122.338;2023-01-26T13:35:21;102656.47;;;12.30;40.24
70009;BME280;59542;37.950;-122.338;2023-01-26T13:38:26;102653.59;;;12.31;40.32
70009;BME280;59542;37.950;-122.338;2023-01-26T13:40:56;102668.69;;;12.40;39.69
70009;BME280;59542;37.950;-122.338;2023-01-26T13:48:52;102679.44;;;12.32;39.98
70009;BME280;59542;37.950;-122.338;2023-01-26T13:51:28;102684.22;;;12.06;40.50
70009;BME280;59542;37.950;-122.338;2023-01-26T13:54:05;102685.50;;;12.34;39.76
70009;BME280;59542;37.950;-122.338;2023-01-26T13:56:35;102691.88;;;12.25;39.92
70009;BME280;59542;37.950;-122.338;2023-01-26T13:59:14;102699.44;;;12.30;40.09
70009;BME280;59542;37.950;-122.338;2023-01-26T14:01:51;102704.84;;;12.13;40.15
70009;BME280;59542;37.950;-122.338;2023-01-26T14:04:23;102712.03;;;12.21;40.31
70009;BME280;59542;37.950;-122.338;2023-01-26T14:07:05;102712.09;;;12.05;40.66
70009;BME280;59542;37.950;-122.338;2023-01-26T14:09:39;102716.59;;;12.12;40.59
70009;BME280;59542;37.950;-122.338;2023-01-26T14:13:01;102718.25;;;12.13;41.06
70009;BME280;59542;37.950;-122.338;2023-01-26T14:15:05;102711.56;;;11.93;40.86
70009;BME280;59542;37.950;-122.338;2023-01-26T14:17:35;102723.50;;;11.91;41.31
70009;BME280;59542;37.950;-122.338;2023-01-26T14:20:17;102724.81;;;12.03;41.35
70009;BME280;59542;37.950;-122.338;2023-01-26T14:23:21;102721.78;;;11.73;41.81
70009;BME280;59542;37.950;-122.338;2023-01-26T14:28:40;102740.06;;;11.70;41.53